EGPE/INV METAR and TAF weather

Enter ICAO airport designator
Station Type Date Time Source
EGPE METAR 2021/01/22 05:50 UTC NOAA

EGPE 220550Z 26008KT 9999 NSC 02/M00 Q0980


Station Type Date Time Source
EGPE Decoded METAR 2021/01/22 05:50 UTC NOAA

Inverness / Dalcross, United Kingdom (EGPE) 57-32N 004-03W 0M
Jan 22, 2021 - 12:50 AM EST / 2021.01.22 0550 UTC
Wind: from the W (260 degrees) at 9 MPH (8 KT):0
Visibility: greater than 7 mile(s):0
Temperature: 35 F (2 C)
Windchill: 28 F (-2 C):1
Dew Point: 32 F (0 C)
Relative Humidity: 86%
Pressure (altimeter): 28.94 in. Hg (0980 hPa)
ob: EGPE 220550Z 26008KT 9999 NSC 02/M00 Q0980
cycle: 6

Station Type Date Time Source
EGPE TAF UTC NOAA

Error!

Example: see airport list